Time;durP1;ratioP1;P1;durP2;ratioP2;P2;SDS_P1;SDS_P2;PMS_P1;PMS_P2;Temp;Humidity;BMP_temperature;BMP_pressure;BME280_temperature;BME280_humidity;BME280_pressure;Samples;Min_cycle;Max_cycle;Signal;HPM_P1;HPM_P2
2022/05/19 00:03:28;;;;;;;6.40;2.20;;;;;;;3.97;63.86;100430.63;103486;1302;24398;-24
2022/05/19 00:05:58;;;;;;;3.10;1.60;;;;;;;3.94;63.24;100429.65;103541;1302;24219;-28
2022/05/19 00:08:27;;;;;;;6.00;2.90;;;;;;;3.91;63.04;100427.79;103455;1302;24926;-24
2022/05/19 00:10:58;;;;;;;5.40;1.70;;;;;;;3.88;63.26;100428.89;103502;1302;25100;-27
2022/05/19 00:13:28;;;;;;;3.30;1.60;;;;;;;3.87;63.33;100428.42;103535;1302;22600;-27
2022/05/19 00:15:57;;;;;;;6.50;3.50;;;;;;;3.86;63.64;100426.77;103429;1302;23811;-23
2022/05/19 00:18:26;;;;;;;7.20;3.50;;;;;;;3.86;62.88;100426.42;103485;1302;22503;-27
2022/05/19 00:20:55;;;;;;;20.50;3.80;;;;;;;3.80;63.12;100429.96;103482;1302;22523;-27
2022/05/19 00:23:24;;;;;;;8.80;2.70;;;;;;;3.72;63.09;100429.30;103485;1302;24228;-28
2022/05/19 00:25:53;;;;;;;5.40;2.60;;;;;;;3.65;62.91;100427.08;103471;1301;25052;-29
2022/05/19 00:28:23;;;;;;;7.00;4.10;;;;;;;3.62;62.80;100427.52;103489;1302;22504;-28
2022/05/19 00:30:52;;;;;;;8.60;2.70;;;;;;;3.59;63.31;100425.79;103512;1302;22966;-28
2022/05/19 00:33:21;;;;;;;5.10;1.60;;;;;;;3.57;63.96;100425.31;103472;1302;22805;-24
2022/05/19 00:35:50;;;;;;;5.90;2.80;;;;;;;3.55;63.77;100423.48;103477;1302;23523;-28
2022/05/19 00:38:19;;;;;;;5.40;2.40;;;;;;;3.52;63.39;100423.21;103528;1302;23062;-24
2022/05/19 00:40:50;;;;;;;10.30;3.50;;;;;;;3.45;63.19;100419.88;103420;1302;24294;-24
2022/05/19 00:43:26;;;;;;;14.80;3.00;;;;;;;3.39;63.15;100417.51;103467;1302;23804;-28
2022/05/19 00:46:01;;;;;;;3.90;1.80;;;;;;;3.35;64.12;100414.14;103468;1302;24291;-28
2022/05/19 00:48:40;;;;;;;6.50;2.50;;;;;;;3.36;64.56;100408.63;103509;1302;24253;-23
2022/05/19 00:51:09;;;;;;;6.50;2.20;;;;;;;3.42;64.18;100407.02;103481;1302;22514;-24
2022/05/19 00:53:43;;;;;;;4.00;1.70;;;;;;;3.50;64.30;100403.38;103494;1302;23796;-24
2022/05/19 00:56:15;;;;;;;6.00;1.30;;;;;;;3.55;64.32;100402.77;103556;1302;23050;-28
2022/05/19 00:58:50;;;;;;;10.10;1.60;;;;;;;3.59;64.42;100396.94;103534;1302;25096;-25
2022/05/19 01:01:19;;;;;;;2.80;1.20;;;;;;;3.65;63.80;100393.09;103386;1302;24304;-24
2022/05/19 01:03:53;;;;;;;2.00;1.00;;;;;;;3.69;63.39;100393.41;103404;1302;22499;-27
2022/05/19 01:06:23;;;;;;;3.70;1.30;;;;;;;3.76;63.15;100394.30;103435;1302;22494;-25
2022/05/19 01:08:56;;;;;;;6.60;1.30;;;;;;;3.81;62.80;100396.58;103499;1302;22765;-28
2022/05/19 01:11:25;;;;;;;4.00;1.20;;;;;;;3.84;62.89;100393.27;103508;1302;24008;-28
2022/05/19 01:13:55;;;;;;;6.30;1.90;;;;;;;3.90;62.75;100397.04;103460;1302;23764;-24
2022/05/19 01:16:24;;;;;;;3.00;2.10;;;;;;;3.92;62.62;100396.97;103502;1302;25227;-27
2022/05/19 01:18:54;;;;;;;4.80;2.10;;;;;;;3.95;62.48;100395.34;103511;1302;23801;-27
2022/05/19 01:21:23;;;;;;;4.70;1.90;;;;;;;4.00;61.84;100399.35;103455;1302;22945;-25
2022/05/19 01:23:59;;;;;;;3.10;1.30;;;;;;;4.03;61.52;100392.59;103556;1302;22591;-25
2022/05/19 01:26:28;;;;;;;5.10;1.70;;;;;;;4.06;61.76;100392.60;103459;1302;24991;-24
2022/05/19 01:28:58;;;;;;;7.30;1.30;;;;;;;4.08;61.75;100385.88;103436;1302;23642;-24
2022/05/19 01:31:27;;;;;;;8.20;1.30;;;;;;;4.11;61.74;100389.38;103522;1302;25000;-30
2022/05/19 01:33:57;;;;;;;4.00;2.60;;;;;;;4.16;61.22;100387.88;103506;1302;24027;-24
2022/05/19 01:36:26;;;;;;;2.60;1.10;;;;;;;4.22;60.77;100385.93;103476;1302;24282;-24
2022/05/19 01:39:00;;;;;;;2.80;1.20;;;;;;;4.29;60.75;100385.91;103476;1302;24441;-26
2022/05/19 01:41:34;;;;;;;2.30;1.20;;;;;;;4.31;60.66;100384.36;103543;1302;22508;-27
2022/05/19 01:44:04;;;;;;;3.30;1.20;;;;;;;4.31;60.49;100382.23;103505;1302;24215;-27
2022/05/19 01:46:35;;;;;;;2.20;1.20;;;;;;;4.30;60.51;100378.41;103475;1302;22944;-24
2022/05/19 01:49:08;;;;;;;2.10;1.10;;;;;;;4.30;60.68;100377.11;103487;1302;25181;-24
2022/05/19 01:51:39;;;;;;;2.20;1.20;;;;;;;4.33;60.42;100373.19;103494;1302;24255;-24
2022/05/19 01:54:14;;;;;;;3.00;1.20;;;;;;;4.34;60.54;100374.13;103498;1302;24006;-24
2022/05/19 01:56:49;;;;;;;2.70;1.20;;;;;;;4.32;60.59;100373.22;103510;1302;22513;-24
2022/05/19 01:59:23;;;;;;;4.10;1.80;;;;;;;4.29;60.62;100372.93;103465;1302;25027;-27
2022/05/19 02:01:59;;;;;;;6.70;1.80;;;;;;;4.27;60.44;100371.16;103419;1302;23844;-27
2022/05/19 02:04:35;;;;;;;5.10;1.90;;;;;;;4.25;60.50;100368.72;103404;1302;25339;-28
2022/05/19 02:07:05;;;;;;;4.90;1.60;;;;;;;4.23;60.23;100372.05;103514;1302;22501;-27
2022/05/19 02:09:36;;;;;;;7.30;2.10;;;;;;;4.21;60.63;100371.35;103386;1303;22489;-24
2022/05/19 02:12:08;;;;;;;3.40;1.40;;;;;;;4.21;60.55;100372.04;103493;1302;25213;-24
2022/05/19 02:14:40;;;;;;;3.30;1.50;;;;;;;4.20;60.38;100369.64;103470;1302;24302;-27
2022/05/19 02:17:10;;;;;;;7.30;2.20;;;;;;;4.16;60.03;100369.80;103527;1302;25013;-27
2022/05/19 02:19:41;;;;;;;3.60;1.60;;;;;;;4.09;60.37;100370.58;103457;1302;22823;-28
2022/05/19 02:22:12;;;;;;;4.20;1.70;;;;;;;4.00;60.59;100371.75;103489;1302;26250;-28
2022/05/19 02:24:46;;;;;;;4.20;2.40;;;;;;;3.89;60.52;100368.89;103546;1302;25340;-28
2022/05/19 02:27:22;;;;;;;14.50;5.70;;;;;;;3.84;60.56;100361.77;103483;1302;22498;-25
2022/05/19 02:29:53;;;;;;;8.10;3.20;;;;;;;3.82;60.79;100365.29;103466;1302;24315;-24
2022/05/19 02:32:22;;;;;;;8.00;2.00;;;;;;;3.78;61.68;100365.25;103452;1302;25134;-24
2022/05/19 02:34:51;;;;;;;5.50;3.00;;;;;;;3.69;62.91;100367.02;103449;1302;22518;-24
2022/05/19 02:37:20;;;;;;;3.00;2.60;;;;;;;3.64;62.23;100367.50;103487;1302;24401;-25
2022/05/19 02:39:49;;;;;;;4.70;2.90;;;;;;;3.56;62.48;100365.48;103492;1302;25067;-28
2022/05/19 02:42:18;;;;;;;3.90;1.80;;;;;;;3.49;64.84;100368.90;103524;1302;24322;-24
2022/05/19 02:44:47;;;;;;;2.60;1.20;;;;;;;3.43;65.33;100368.34;103461;1302;22511;-24
2022/05/19 02:47:16;;;;;;;2.70;1.40;;;;;;;3.37;66.84;100372.05;103514;1302;24990;-28
2022/05/19 02:49:45;;;;;;;8.00;1.70;;;;;;;3.30;66.05;100372.61;103565;1302;24238;-27
2022/05/19 02:52:13;;;;;;;4.70;1.50;;;;;;;3.26;66.46;100377.19;103532;1302;22521;-24
2022/05/19 02:54:42;;;;;;;3.70;1.20;;;;;;;3.21;65.12;100373.73;103497;1302;22735;-27
2022/05/19 02:57:11;;;;;;;2.60;1.70;;;;;;;3.15;63.83;100375.82;103489;1301;24308;-27
2022/05/19 02:59:40;;;;;;;2.50;1.40;;;;;;;3.11;63.11;100378.44;103465;1302;22527;-29
2022/05/19 03:02:09;;;;;;;7.50;2.30;;;;;;;3.06;63.23;100377.41;103467;1302;25010;-30
2022/05/19 03:04:38;;;;;;;4.40;2.50;;;;;;;3.03;64.46;100374.81;103455;1302;25119;-25
2022/05/19 03:07:07;;;;;;;3.70;2.60;;;;;;;3.03;64.15;100369.28;103478;1302;24243;-24
2022/05/19 03:09:37;;;;;;;5.00;2.10;;;;;;;3.04;64.03;100367.14;103459;1302;24199;-24
2022/05/19 03:12:08;;;;;;;4.80;1.90;;;;;;;3.09;65.71;100370.45;103435;1302;22792;-27
2022/05/19 03:14:37;;;;;;;4.80;2.20;;;;;;;3.19;66.25;100371.59;103490;1302;24226;-29
2022/05/19 03:17:07;;;;;;;6.00;2.60;;;;;;;3.39;66.65;100364.98;103421;1302;24725;-24
2022/05/19 03:19:37;;;;;;;6.00;2.20;;;;;;;3.51;64.81;100363.41;103469;1302;24218;-29
2022/05/19 03:22:06;;;;;;;6.80;2.70;;;;;;;3.75;64.01;100357.37;103523;1302;24209;-29
2022/05/19 03:24:36;;;;;;;5.30;3.20;;;;;;;4.19;63.71;100353.59;103486;1302;23899;-26
2022/05/19 03:27:05;;;;;;;5.00;2.50;;;;;;;4.70;63.12;100352.02;103471;1303;23594;-24
2022/05/19 03:29:34;;;;;;;5.20;2.50;;;;;;;5.15;62.59;100354.19;103462;1302;22763;-28
2022/05/19 03:32:03;;;;;;;9.20;2.50;;;;;;;5.57;61.93;100355.36;103487;1302;25112;-24
2022/05/19 03:34:32;;;;;;;4.70;2.60;;;;;;;6.02;61.33;100357.11;103479;1302;25106;-24
2022/05/19 03:37:03;;;;;;;4.20;2.10;;;;;;;6.44;60.26;100353.81;103472;1302;23814;-28
2022/05/19 03:39:32;;;;;;;6.00;2.40;;;;;;;6.78;59.27;100351.45;103447;1302;26119;-27
2022/05/19 03:42:02;;;;;;;9.60;3.10;;;;;;;7.14;58.47;100353.23;103390;1302;24292;-28
2022/05/19 03:44:32;;;;;;;4.00;2.40;;;;;;;7.56;58.10;100352.09;103431;1302;22520;-28
2022/05/19 03:47:01;;;;;;;2.50;1.80;;;;;;;7.94;56.78;100352.16;103500;1302;22506;-28
2022/05/19 03:49:31;;;;;;;8.40;2.70;;;;;;;8.20;55.31;100354.52;103460;1302;23812;-23
2022/05/19 03:52:00;;;;;;;12.20;2.70;;;;;;;8.46;54.54;100356.30;103509;1302;24215;-24
2022/05/19 03:54:29;;;;;;;8.00;2.20;;;;;;;8.67;54.41;100352.66;103463;1302;22504;-27
2022/05/19 03:56:58;;;;;;;3.10;2.20;;;;;;;8.88;55.64;100356.97;103402;1302;22544;-29
2022/05/19 03:59:27;;;;;;;6.60;2.10;;;;;;;9.15;55.19;100356.70;103409;1302;23848;-26
2022/05/19 04:01:56;;;;;;;3.50;2.40;;;;;;;9.45;54.25;100357.16;103488;1302;23640;-23
2022/05/19 04:04:25;;;;;;;5.20;1.90;;;;;;;9.67;54.70;100361.70;103424;1302;23802;-24
2022/05/19 04:06:54;;;;;;;3.90;2.00;;;;;;;9.88;54.42;100357.73;103437;1302;22504;-28
2022/05/19 04:09:23;;;;;;;3.80;1.70;;;;;;;10.15;53.07;100357.62;103475;1302;22499;-30
2022/05/19 04:11:52;;;;;;;6.70;2.50;;;;;;;10.34;52.52;100357.55;103382;1302;23627;-24
2022/05/19 04:14:21;;;;;;;5.50;1.80;;;;;;;10.48;52.73;100356.14;103223;1302;316701;-26
2022/05/19 04:16:52;;;;;;;2.90;1.80;;;;;;;10.71;52.53;100351.02;103438;1302;22627;-24
2022/05/19 04:19:21;;;;;;;3.50;2.20;;;;;;;10.81;50.93;100349.23;103517;1302;23610;-24
2022/05/19 04:21:50;;;;;;;3.00;2.00;;;;;;;10.62;50.46;100349.37;103404;1302;23328;-28
2022/05/19 04:24:19;;;;;;;2.60;1.70;;;;;;;10.56;50.26;100350.98;103485;1302;24974;-25
2022/05/19 04:26:49;;;;;;;16.20;2.20;;;;;;;10.34;50.40;100346.05;103519;1302;22505;-27
2022/05/19 04:29:18;;;;;;;3.40;2.00;;;;;;;10.08;51.02;100347.63;103485;1302;24245;-28
2022/05/19 04:31:47;;;;;;;3.20;2.00;;;;;;;9.91;51.54;100344.20;103493;1302;23598;-23
2022/05/19 04:34:16;;;;;;;4.90;2.50;;;;;;;9.71;51.94;100344.05;103459;1303;22511;-28
2022/05/19 04:36:46;;;;;;;10.00;2.10;;;;;;;9.50;52.60;100341.14;103429;1302;24321;-24
2022/05/19 04:39:15;;;;;;;4.70;2.50;;;;;;;9.30;53.38;100343.10;103474;1302;24221;-28
2022/05/19 04:41:44;;;;;;;3.60;2.60;;;;;;;9.28;53.80;100338.55;103487;1302;23639;-28
2022/05/19 04:44:13;;;;;;;4.90;2.10;;;;;;;9.50;53.80;100341.55;103488;1302;24974;-24
2022/05/19 04:46:42;;;;;;;8.80;4.40;;;;;;;9.82;53.45;100342.15;103481;1302;24243;-24
2022/05/19 04:49:11;;;;;;;11.40;3.10;;;;;;;10.21;53.15;100344.16;103472;1302;24214;-24
2022/05/19 04:51:40;;;;;;;4.80;2.80;;;;;;;10.60;52.88;100341.14;103497;1302;24224;-27
2022/05/19 04:54:09;;;;;;;16.00;2.70;;;;;;;10.96;51.60;100341.15;103518;1302;24354;-24
2022/05/19 04:56:40;;;;;;;12.30;2.90;;;;;;;11.27;51.47;100346.02;103414;1302;22506;-28
2022/05/19 04:59:14;;;;;;;4.80;2.90;;;;;;;11.66;50.95;100348.16;103505;1302;22683;-24
2022/05/19 05:01:44;;;;;;;3.20;1.90;;;;;;;12.11;50.39;100351.13;103462;1302;24229;-28
2022/05/19 05:04:13;;;;;;;3.30;1.70;;;;;;;12.54;50.05;100352.24;103488;1302;25379;-25
2022/05/19 05:06:42;;;;;;;7.80;2.20;;;;;;;12.92;49.32;100349.22;103467;1302;22911;-25
2022/05/19 05:09:11;;;;;;;5.00;2.20;;;;;;;13.35;49.74;100350.90;103444;1301;23741;-25
2022/05/19 05:11:41;;;;;;;5.30;2.20;;;;;;;13.72;48.41;100355.45;103463;1301;22528;-25
2022/05/19 05:14:10;;;;;;;3.10;2.00;;;;;;;14.06;47.30;100355.48;103475;1302;23594;-27
2022/05/19 05:16:39;;;;;;;9.30;1.70;;;;;;;14.35;47.69;100350.07;103490;1302;23521;-25
2022/05/19 05:19:08;;;;;;;2.70;1.50;;;;;;;14.69;47.00;100347.09;103438;1301;26264;-28
2022/05/19 05:21:37;;;;;;;5.90;2.30;;;;;;;14.83;46.76;100344.51;103423;1301;24310;-27
2022/05/19 05:24:06;;;;;;;3.50;1.50;;;;;;;15.03;46.00;100343.25;103404;1303;24336;-24
2022/05/19 05:26:35;;;;;;;4.30;1.80;;;;;;;15.33;46.12;100341.09;103419;1302;24347;-28
2022/05/19 05:29:04;;;;;;;4.20;1.90;;;;;;;15.62;45.50;100345.54;103469;1302;24365;-28
2022/05/19 05:31:33;;;;;;;4.10;1.80;;;;;;;15.78;43.72;100348.95;103476;1302;25000;-27
2022/05/19 05:34:02;;;;;;;2.20;1.80;;;;;;;15.83;43.20;100352.02;103529;1302;23607;-28
2022/05/19 05:36:31;;;;;;;5.80;1.90;;;;;;;15.94;42.15;100352.63;103495;1302;22597;-28
2022/05/19 05:39:00;;;;;;;9.60;1.60;;;;;;;16.10;41.65;100351.54;103503;1302;23808;-28
2022/05/19 05:41:29;;;;;;;5.60;1.50;;;;;;;16.42;42.02;100350.59;103516;1302;25125;-24
2022/05/19 05:43:58;;;;;;;3.90;1.90;;;;;;;16.50;41.51;100349.44;103473;1302;22529;-23
2022/05/19 05:46:27;;;;;;;6.20;1.40;;;;;;;16.43;40.50;100352.40;103492;1302;24320;-25
2022/05/19 05:48:56;;;;;;;5.50;1.70;;;;;;;16.58;40.26;100349.15;103530;1302;22537;-25
2022/05/19 05:51:25;;;;;;;3.90;2.20;;;;;;;16.61;40.09;100349.36;103437;1302;22641;-30
2022/05/19 05:53:54;;;;;;;4.00;1.70;;;;;;;16.60;38.88;100347.49;103488;1302;24229;-23
2022/05/19 05:56:23;;;;;;;4.80;2.10;;;;;;;16.51;38.88;100349.27;103383;1303;24276;-24
2022/05/19 05:58:52;;;;;;;3.50;1.60;;;;;;;16.49;38.97;100345.05;103522;1302;24250;-28
2022/05/19 06:01:22;;;;;;;1.60;1.10;;;;;;;16.70;38.91;100347.13;103404;1302;24320;-28
2022/05/19 06:03:51;;;;;;;2.10;1.40;;;;;;;17.00;37.35;100344.05;103464;1302;22512;-28
2022/05/19 06:06:20;;;;;;;2.50;1.30;;;;;;;16.74;37.84;100342.61;103635;1302;24225;-28
2022/05/19 06:08:49;;;;;;;2.80;1.50;;;;;;;16.76;38.49;100342.20;103763;1302;24248;-30
2022/05/19 06:11:18;;;;;;;18.60;1.70;;;;;;;17.18;37.65;100344.20;103760;1302;22512;-26
2022/05/19 06:13:50;;;;;;;7.50;1.60;;;;;;;17.20;37.44;100350.85;103455;1303;24223;-24
2022/05/19 06:16:19;;;;;;;6.20;1.30;;;;;;;17.16;37.71;100352.11;103432;1302;24320;-27
2022/05/19 06:18:48;;;;;;;3.70;1.70;;;;;;;17.33;37.38;100353.27;103507;1302;25497;-24
2022/05/19 06:21:17;;;;;;;4.50;1.50;;;;;;;17.45;37.43;100357.05;103455;1302;24195;-28
2022/05/19 06:23:46;;;;;;;6.30;1.60;;;;;;;17.73;37.72;100357.84;103478;1302;25091;-29
2022/05/19 06:26:15;;;;;;;5.40;1.30;;;;;;;18.15;35.64;100354.09;103507;1302;22507;-25
2022/05/19 06:28:44;;;;;;;2.80;1.50;;;;;;;17.72;36.65;100355.05;103467;1302;24253;-25
2022/05/19 06:31:13;;;;;;;6.50;1.50;;;;;;;17.89;36.27;100352.48;103448;1302;22639;-25
2022/05/19 06:33:42;;;;;;;2.70;1.60;;;;;;;17.76;36.12;100347.55;103432;1302;23604;-27
2022/05/19 06:36:13;;;;;;;20.10;2.00;;;;;;;17.94;35.94;100345.95;103461;1302;22493;-27
2022/05/19 06:38:43;;;;;;;4.50;2.20;;;;;;;17.99;35.54;100349.59;103436;1302;25106;-24
2022/05/19 06:43:47;;;;;;;7.60;1.90;;;;;;;18.07;36.15;100344.42;103428;1302;24296;-30
2022/05/19 06:46:16;;;;;;;2.50;1.40;;;;;;;18.21;35.85;100345.67;103531;1300;23638;-27
2022/05/19 06:48:45;;;;;;;4.20;1.20;;;;;;;18.33;36.66;100344.55;103509;1302;23097;-27
2022/05/19 06:51:14;;;;;;;1.50;0.90;;;;;;;18.81;36.57;100344.14;103502;1302;23531;-28
2022/05/19 06:53:43;;;;;;;14.30;1.50;;;;;;;19.21;36.32;100343.83;103504;1302;22613;-25
2022/05/19 06:56:12;;;;;;;2.10;1.50;;;;;;;19.58;35.34;100344.34;103528;1302;24288;-25
2022/05/19 06:58:41;;;;;;;6.60;1.10;;;;;;;19.82;35.17;100345.97;103502;1302;22840;-25
2022/05/19 07:01:10;;;;;;;3.00;1.30;;;;;;;20.20;35.30;100345.23;103491;1302;24314;-24
2022/05/19 07:03:39;;;;;;;3.60;1.60;;;;;;;20.39;33.60;100345.35;103435;1302;25127;-25
2022/05/19 07:06:08;;;;;;;1.70;1.10;;;;;;;20.24;34.05;100348.08;103451;1302;25245;-24
2022/05/19 07:08:38;;;;;;;7.90;1.70;;;;;;;20.51;34.01;100346.23;103469;1302;22521;-29
2022/05/19 07:11:24;;;;;;;2.60;1.50;;;;;;;20.69;34.09;100348.52;103461;1302;22507;-30
2022/05/19 07:13:55;;;;;;;1.70;1.10;;;;;;;20.95;33.16;100345.77;103459;1302;23860;-27
2022/05/19 07:16:24;;;;;;;3.50;1.00;;;;;;;20.61;33.56;100342.30;103491;1302;22680;-25
2022/05/19 07:21:26;;;;;;;3.30;1.30;;;;;;;21.53;32.86;100343.77;103463;1302;25133;-25
2022/05/19 07:23:55;;;;;;;1.90;1.00;;;;;;;21.96;31.48;100344.45;103437;1302;22824;-28
2022/05/19 07:26:24;;;;;;;2.00;1.10;;;;;;;21.82;30.71;100347.84;103477;1302;22510;-24
2022/05/19 07:28:53;;;;;;;3.00;1.40;;;;;;;21.43;31.22;100350.77;103421;1302;24351;-24
2022/05/19 07:31:22;;;;;;;2.50;1.20;;;;;;;21.29;32.40;100345.77;103482;1302;22726;-24
2022/05/19 07:33:50;;;;;;;6.00;1.70;;;;;;;21.63;31.85;100345.36;103454;1302;24420;-27
2022/05/19 07:36:21;;;;;;;4.40;1.20;;;;;;;22.05;31.35;100344.16;103347;1300;22846;-25
2022/05/19 07:38:50;;;;;;;3.70;1.50;;;;;;;22.37;30.85;100343.26;103416;1302;24280;-27
2022/05/19 07:41:19;;;;;;;2.80;1.40;;;;;;;22.52;30.98;100341.38;103462;1302;24241;-27
2022/05/19 07:43:48;;;;;;;10.40;1.50;;;;;;;22.76;30.26;100337.08;103445;1302;23775;-26
2022/05/19 07:46:18;;;;;;;3.00;0.90;;;;;;;22.77;30.33;100329.13;103504;1301;24338;-23
2022/05/19 07:48:47;;;;;;;2.20;1.50;;;;;;;23.13;29.85;100331.89;103431;1302;24199;-27
2022/05/19 07:51:16;;;;;;;7.90;1.30;;;;;;;23.18;29.19;100334.52;103467;1302;22615;-23
2022/05/19 07:53:45;;;;;;;4.60;1.10;;;;;;;23.14;29.52;100335.84;103425;1302;24030;-24
2022/05/19 07:56:15;;;;;;;2.60;1.40;;;;;;;23.56;27.89;100331.37;103397;1301;23885;-23
2022/05/19 07:58:45;;;;;;;3.30;1.10;;;;;;;23.03;28.51;100334.17;103491;1302;24016;-27
2022/05/19 08:01:15;;;;;;;1.60;1.20;;;;;;;22.92;29.24;100333.16;103429;1302;24114;-27
2022/05/19 08:03:44;;;;;;;3.40;1.30;;;;;;;23.21;28.86;100329.63;103479;1301;24304;-27
2022/05/19 08:06:13;;;;;;;2.20;1.10;;;;;;;23.27;29.17;100329.31;103458;1301;24198;-24
2022/05/19 08:08:43;;;;;;;5.30;1.40;;;;;;;23.67;29.21;100322.20;103444;1302;23633;-24
2022/05/19 08:11:12;;;;;;;4.80;1.10;;;;;;;24.22;28.51;100320.77;103455;1302;24359;-24
2022/05/19 08:16:14;;;;;;;1.00;0.60;;;;;;;24.44;26.20;100314.68;103493;1302;24288;-24
2022/05/19 08:18:43;;;;;;;1.70;0.90;;;;;;;24.27;26.63;100314.06;103464;1302;22726;-28
2022/05/19 08:21:12;;;;;;;11.30;2.70;;;;;;;24.25;25.36;100314.27;103460;1302;24407;-27
2022/05/19 08:23:45;;;;;;;1.60;0.80;;;;;;;24.12;25.19;100308.69;103501;1302;24367;-27
2022/05/19 08:26:14;;;;;;;2.60;1.00;;;;;;;23.85;26.52;100308.54;103472;1302;24390;-24
2022/05/19 08:28:43;;;;;;;2.70;1.10;;;;;;;24.04;26.67;100309.29;103495;1302;24248;-27
2022/05/19 08:31:14;;;;;;;1.60;0.80;;;;;;;24.15;26.06;100306.89;103385;1302;22530;-24
2022/05/19 08:33:45;;;;;;;1.70;0.50;;;;;;;24.08;26.93;100304.92;103451;1302;24023;-27
2022/05/19 08:36:14;;;;;;;3.50;0.80;;;;;;;24.64;26.12;100297.98;103400;1302;25231;-28
2022/05/19 08:38:43;;;;;;;1.80;0.60;;;;;;;24.94;25.39;100298.64;103404;1302;22508;-27
2022/05/19 08:41:18;;;;;;;8.70;0.70;;;;;;;25.45;24.86;100298.45;103401;1302;24405;-28
2022/05/19 08:43:51;;;;;;;0.90;0.40;;;;;;;25.96;24.32;100299.21;103456;1302;22768;-24
2022/05/19 08:46:22;;;;;;;4.60;0.60;;;;;;;25.95;23.76;100299.94;103305;1302;22511;-28
2022/05/19 08:48:53;;;;;;;1.00;0.50;;;;;;;26.01;22.83;100299.10;103500;1302;25213;-27
2022/05/19 08:51:25;;;;;;;1.80;0.90;;;;;;;25.86;22.73;100300.21;103558;1302;22503;-24
2022/05/19 08:53:56;;;;;;;2.00;0.70;;;;;;;25.71;22.97;100302.66;103484;1302;23512;-24
2022/05/19 08:56:27;;;;;;;2.30;0.70;;;;;;;25.62;22.66;100299.08;103447;1302;25520;-24
2022/05/19 08:59:05;;;;;;;1.70;1.50;;;;;;;25.87;22.86;100295.90;103475;1302;25073;-28
2022/05/19 09:01:44;;;;;;;4.20;0.90;;;;;;;26.30;20.91;100297.08;103446;1302;22489;-27
2022/05/19 09:04:21;;;;;;;2.20;0.20;;;;;;;26.35;21.66;100297.50;103494;1302;22773;-28
2022/05/19 09:09:30;;;;;;;0.70;0.50;;;;;;;26.61;20.73;100295.90;103428;1302;22739;-28
2022/05/19 09:12:04;;;;;;;10.60;0.40;;;;;;;27.21;19.28;100295.89;103484;1302;22798;-27
2022/05/19 09:14:33;;;;;;;2.00;0.60;;;;;;;27.19;19.03;100299.52;103444;1302;23747;-28
2022/05/19 09:17:05;;;;;;;1.70;1.00;;;;;;;27.21;18.78;100295.63;103478;1302;24245;-25
2022/05/19 09:19:35;;;;;;;;;;;;;;;27.21;18.32;100295.59;103415;1302;24344;-28
2022/05/19 09:22:07;;;;;;;3.80;0.50;;;;;;;27.34;18.17;100286.27;103473;1302;25037;-24
2022/05/19 09:24:36;;;;;;;1.30;0.50;;;;;;;27.43;18.28;100288.60;103439;1302;24249;-24
2022/05/19 09:27:06;;;;;;;4.80;0.60;;;;;;;27.78;18.33;100280.33;103531;1302;23927;-28
2022/05/19 09:29:37;;;;;;;0.70;0.50;;;;;;;27.69;18.70;100273.55;103503;1302;24203;-24
2022/05/19 09:32:07;;;;;;;0.70;0.40;;;;;;;27.96;19.17;100275.81;103492;1302;22717;-25
2022/05/19 09:34:36;;;;;;;1.50;0.50;;;;;;;28.30;18.52;100275.25;103548;1302;24225;-28
2022/05/19 09:37:06;;;;;;;0.80;0.50;;;;;;;28.12;18.37;100268.86;103500;1302;22581;-24
2022/05/19 09:39:43;;;;;;;5.70;0.80;;;;;;;27.84;18.58;100263.16;103535;1302;25811;-27
2022/05/19 09:42:14;;;;;;;1.30;0.50;;;;;;;27.93;19.23;100258.45;103499;1302;22919;-24
2022/05/19 09:44:45;;;;;;;0.80;0.60;;;;;;;28.26;18.91;100256.77;103462;1302;24215;-28
2022/05/19 09:47:17;;;;;;;1.00;0.70;;;;;;;28.27;18.89;100259.33;103457;1302;26400;-27
2022/05/19 09:49:51;;;;;;;2.50;0.80;;;;;;;27.68;19.11;100257.83;103460;1302;24339;-24
2022/05/19 09:52:24;;;;;;;2.90;1.00;;;;;;;27.35;20.01;100254.27;103396;1302;23587;-27
2022/05/19 09:54:57;;;;;;;3.30;0.60;;;;;;;27.80;20.61;100253.02;103420;1302;22502;-27
2022/05/19 09:57:27;;;;;;;;;;;;;;;27.83;19.90;100247.98;103444;1301;22814;-24
2022/05/19 09:59:59;;;;;;;2.00;0.50;;;;;;;28.09;20.07;100243.15;103399;1302;24431;-24
2022/05/19 10:02:31;;;;;;;2.90;0.90;;;;;;;28.57;19.50;100237.10;103478;1302;24216;-25
2022/05/19 10:05:01;;;;;;;1.50;0.80;;;;;;;28.37;20.04;100240.86;103505;1302;23474;-28
2022/05/19 10:07:36;;;;;;;2.00;0.60;;;;;;;28.46;20.05;100238.45;103479;1302;24242;-27
2022/05/19 10:10:18;;;;;;;0.60;0.40;;;;;;;28.77;19.63;100231.25;103509;1302;24346;-28
2022/05/19 10:12:47;;;;;;;1.90;0.70;;;;;;;28.94;18.82;100229.68;103500;1301;23621;-27
2022/05/19 10:15:18;;;;;;;5.90;0.50;;;;;;;28.69;17.89;100233.23;103494;1302;24058;-28
2022/05/19 10:17:55;;;;;;;3.20;0.70;;;;;;;28.53;18.22;100235.88;103508;1302;24217;-24
2022/05/19 10:20:29;;;;;;;7.50;0.90;;;;;;;28.34;18.74;100236.70;103428;1302;24308;-24
2022/05/19 10:23:02;;;;;;;1.10;0.40;;;;;;;28.67;17.50;100236.41;103448;1302;24345;-24
2022/05/19 10:25:32;;;;;;;0.70;0.40;;;;;;;28.65;17.64;100229.42;103463;1302;24298;-28
2022/05/19 10:33:42;;;;;;;3.30;0.60;;;;;;;28.62;18.23;100219.28;103443;1302;23793;-27
2022/05/19 10:36:18;;;;;;;2.20;0.60;;;;;;;29.19;19.20;100214.78;103447;1302;23835;-24
2022/05/19 10:39:01;;;;;;;0.80;0.50;;;;;;;29.43;19.15;100212.73;103445;1302;23792;-24
2022/05/19 10:41:35;;;;;;;2.90;0.90;;;;;;;29.95;16.88;100204.61;103459;1302;22606;-28
2022/05/19 10:44:09;;;;;;;3.60;0.70;;;;;;;28.98;17.73;100201.38;103497;1301;24198;-24
2022/05/19 10:46:42;;;;;;;1.40;0.70;;;;;;;29.15;18.07;100195.66;103471;1302;24229;-28
2022/05/19 10:49:32;;;;;;;1.10;0.30;;;;;;;29.09;17.83;100192.03;103532;1302;24324;-24
2022/05/19 10:52:07;;;;;;;1.20;0.60;;;;;;;28.89;18.08;100188.66;103393;1302;25160;-29
2022/05/19 10:54:43;;;;;;;0.70;0.50;;;;;;;28.88;18.76;100182.77;103516;1302;22521;-25
2022/05/19 10:57:16;;;;;;;7.60;0.60;;;;;;;29.38;18.35;100177.95;103411;1302;24257;-28
2022/05/19 10:59:51;;;;;;;0.90;0.60;;;;;;;29.71;18.19;100177.10;103506;1302;23839;-28
2022/05/19 11:02:28;;;;;;;3.50;0.80;;;;;;;29.90;17.57;100171.09;103489;1302;23923;-24
2022/05/19 11:05:02;;;;;;;1.00;0.40;;;;;;;29.36;18.67;100167.14;103512;1302;23863;-28
2022/05/19 11:07:37;;;;;;;0.60;0.50;;;;;;;29.22;18.22;100164.78;103448;1302;25384;-24
2022/05/19 11:10:18;;;;;;;6.00;0.80;;;;;;;29.30;17.93;100162.30;103471;1301;24214;-24
2022/05/19 11:12:59;;;;;;;1.20;0.60;;;;;;;29.18;18.82;100154.01;103441;1302;25016;-24
2022/05/19 11:15:32;;;;;;;1.70;0.70;;;;;;;29.51;18.84;100150.77;103452;1302;23794;-28
2022/05/19 11:18:04;;;;;;;0.80;0.40;;;;;;;29.56;18.55;100150.63;103543;1302;24461;-24
2022/05/19 11:20:37;;;;;;;0.90;0.60;;;;;;;29.70;18.90;100147.23;103534;1302;24975;-25
2022/05/19 11:23:11;;;;;;;0.70;0.50;;;;;;;30.27;18.67;100142.02;103479;1302;24001;-24
2022/05/19 11:28:21;;;;;;;3.90;0.40;;;;;;;30.45;17.61;100136.08;103341;1302;22594;-24
2022/05/19 11:30:54;;;;;;;3.80;0.50;;;;;;;30.89;17.30;100131.09;103513;1302;24475;-28
2022/05/19 11:33:30;;;;;;;0.90;0.40;;;;;;;30.42;17.01;100126.77;103389;1302;22861;-25
2022/05/19 11:36:01;;;;;;;1.70;0.50;;;;;;;30.16;17.00;100123.21;103477;1302;24994;-28
2022/05/19 11:38:37;;;;;;;0.60;0.30;;;;;;;29.97;17.91;100123.55;103363;1302;24407;-24
2022/05/19 11:41:10;;;;;;;1.10;0.50;;;;;;;30.28;17.50;100117.38;103446;1302;24226;-25
2022/05/19 11:43:43;;;;;;;1.10;0.50;;;;;;;30.35;17.23;100113.69;103461;1302;23810;-28
2022/05/19 11:46:17;;;;;;;0.70;0.20;;;;;;;30.08;17.49;100108.80;103471;1302;22781;-24
2022/05/19 11:56:40;;;;;;;2.50;0.70;;;;;;;31.37;16.81;100090.20;103491;1299;22900;-24
2022/05/19 11:59:10;;;;;;;2.60;0.50;;;;;;;31.20;16.35;100088.38;103470;1301;24323;-24
2022/05/19 12:01:44;;;;;;;1.90;0.50;;;;;;;30.96;17.26;100089.27;103318;1302;24183;-24
2022/05/19 12:04:17;;;;;;;9.90;0.70;;;;;;;31.04;18.02;100084.58;103424;1302;24290;-24